sensor_id;sensor_type;location;lat;lon;timestamp;temperature;humidity
24668;DHT22;12793;48.014;0.232;2022-10-29T00:00:03;19.50;64.90
24668;DHT22;12793;48.014;0.232;2022-10-29T00:02:29;19.50;64.90
24668;DHT22;12793;48.014;0.232;2022-10-29T00:04:55;19.50;64.90
24668;DHT22;12793;48.014;0.232;2022-10-29T00:07:20;19.50;64.90
24668;DHT22;12793;48.014;0.232;2022-10-29T00:09:46;19.50;64.90
24668;DHT22;12793;48.014;0.232;2022-10-29T00:12:12;19.50;64.90
24668;DHT22;12793;48.014;0.232;2022-10-29T00:14:37;19.50;64.90
24668;DHT22;12793;48.014;0.232;2022-10-29T00:17:04;19.50;65.00
24668;DHT22;12793;48.014;0.232;2022-10-29T00:19:29;19.50;65.00
24668;DHT22;12793;48.014;0.232;2022-10-29T00:21:55;19.40;65.00
24668;DHT22;12793;48.014;0.232;2022-10-29T00:24:20;19.40;65.00
24668;DHT22;12793;48.014;0.232;2022-10-29T00:26:46;19.40;65.10
24668;DHT22;12793;48.014;0.232;2022-10-29T00:29:11;19.40;65.10
24668;DHT22;12793;48.014;0.232;2022-10-29T00:31:37;19.40;65.20
24668;DHT22;12793;48.014;0.232;2022-10-29T00:34:04;19.40;65.20
24668;DHT22;12793;48.014;0.232;2022-10-29T00:36:29;19.40;65.20
24668;DHT22;12793;48.014;0.232;2022-10-29T00:38:55;19.40;65.20
24668;DHT22;12793;48.014;0.232;2022-10-29T00:41:22;19.40;65.20
24668;DHT22;12793;48.014;0.232;2022-10-29T00:44:36;19.40;65.20
24668;DHT22;12793;48.014;0.232;2022-10-29T00:46:36;19.40;65.20
24668;DHT22;12793;48.014;0.232;2022-10-29T00:49:02;19.40;65.20
24668;DHT22;12793;48.014;0.232;2022-10-29T00:51:28;19.40;65.30
24668;DHT22;12793;48.014;0.232;2022-10-29T00:53:55;19.40;65.20
24668;DHT22;12793;48.014;0.232;2022-10-29T00:56:22;19.40;65.20
24668;DHT22;12793;48.014;0.232;2022-10-29T00:58:48;19.40;65.20
24668;DHT22;12793;48.014;0.232;2022-10-29T01:01:14;19.40;65.20
24668;DHT22;12793;48.014;0.232;2022-10-29T01:03:40;19.40;65.10
24668;DHT22;12793;48.014;0.232;2022-10-29T01:06:06;19.40;65.10
24668;DHT22;12793;48.014;0.232;2022-10-29T01:08:32;19.40;65.10
24668;DHT22;12793;48.014;0.232;2022-10-29T01:13:56;19.50;65.00
24668;DHT22;12793;48.014;0.232;2022-10-29T01:19:03;19.50;65.00
24668;DHT22;12793;48.014;0.232;2022-10-29T01:21:37;19.50;64.90
24668;DHT22;12793;48.014;0.232;2022-10-29T01:31:52;19.50;64.70
24668;DHT22;12793;48.014;0.232;2022-10-29T01:34:34;19.50;64.60
24668;DHT22;12793;48.014;0.232;2022-10-29T01:37:17;19.50;64.60
24668;DHT22;12793;48.014;0.232;2022-10-29T01:40:27;19.50;64.50
24668;DHT22;12793;48.014;0.232;2022-10-29T01:42:41;19.50;64.50
24668;DHT22;12793;48.014;0.232;2022-10-29T01:45:12;19.50;64.40
24668;DHT22;12793;48.014;0.232;2022-10-29T01:47:48;19.50;64.40
24668;DHT22;12793;48.014;0.232;2022-10-29T01:50:17;19.50;64.40
24668;DHT22;12793;48.014;0.232;2022-10-29T01:52:44;19.50;64.40
24668;DHT22;12793;48.014;0.232;2022-10-29T01:55:14;19.50;64.40
24668;DHT22;12793;48.014;0.232;2022-10-29T01:57:39;19.50;64.40
24668;DHT22;12793;48.014;0.232;2022-10-29T02:07:49;19.60;64.20
24668;DHT22;12793;48.014;0.232;2022-10-29T02:12:59;19.60;64.10
24668;DHT22;12793;48.014;0.232;2022-10-29T02:15:36;19.60;64.00
24668;DHT22;12793;48.014;0.232;2022-10-29T02:18:05;19.70;64.00
24668;DHT22;12793;48.014;0.232;2022-10-29T02:20:31;19.70;63.90
24668;DHT22;12793;48.014;0.232;2022-10-29T02:22:56;19.70;63.80
24668;DHT22;12793;48.014;0.232;2022-10-29T02:25:22;19.70;63.80
24668;DHT22;12793;48.014;0.232;2022-10-29T02:27:47;19.70;63.70
24668;DHT22;12793;48.014;0.232;2022-10-29T02:30:13;19.80;63.80
24668;DHT22;12793;48.014;0.232;2022-10-29T02:32:39;19.80;63.80
24668;DHT22;12793;48.014;0.232;2022-10-29T02:35:05;19.80;63.70
24668;DHT22;12793;48.014;0.232;2022-10-29T02:37:30;19.80;63.70
24668;DHT22;12793;48.014;0.232;2022-10-29T02:39:56;19.80;63.70
24668;DHT22;12793;48.014;0.232;2022-10-29T02:42:21;19.80;63.60
24668;DHT22;12793;48.014;0.232;2022-10-29T02:44:47;19.80;63.60
24668;DHT22;12793;48.014;0.232;2022-10-29T02:47:12;19.80;63.60
24668;DHT22;12793;48.014;0.232;2022-10-29T02:49:38;19.80;63.60
24668;DHT22;12793;48.014;0.232;2022-10-29T02:52:03;19.80;63.60
24668;DHT22;12793;48.014;0.232;2022-10-29T02:54:30;19.80;63.50
24668;DHT22;12793;48.014;0.232;2022-10-29T02:56:55;19.80;63.50
24668;DHT22;12793;48.014;0.232;2022-10-29T02:59:21;19.80;63.40
24668;DHT22;12793;48.014;0.232;2022-10-29T03:01:46;19.80;63.40
24668;DHT22;12793;48.014;0.232;2022-10-29T03:04:12;19.80;63.40
24668;DHT22;12793;48.014;0.232;2022-10-29T03:06:37;19.80;63.30
24668;DHT22;12793;48.014;0.232;2022-10-29T03:09:03;19.80;63.30
24668;DHT22;12793;48.014;0.232;2022-10-29T03:11:29;19.80;63.30
24668;DHT22;12793;48.014;0.232;2022-10-29T03:13:54;19.80;63.30
24668;DHT22;12793;48.014;0.232;2022-10-29T03:16:20;19.80;63.30
24668;DHT22;12793;48.014;0.232;2022-10-29T03:18:45;19.80;63.30
24668;DHT22;12793;48.014;0.232;2022-10-29T03:21:11;19.80;63.30
24668;DHT22;12793;48.014;0.232;2022-10-29T03:23:37;19.80;63.30
24668;DHT22;12793;48.014;0.232;2022-10-29T03:26:02;19.80;63.40
24668;DHT22;12793;48.014;0.232;2022-10-29T03:28:28;19.80;63.40
24668;DHT22;12793;48.014;0.232;2022-10-29T03:30:55;19.80;63.40
24668;DHT22;12793;48.014;0.232;2022-10-29T03:33:21;19.70;63.30
24668;DHT22;12793;48.014;0.232;2022-10-29T03:35:47;19.70;63.40
24668;DHT22;12793;48.014;0.232;2022-10-29T03:38:12;19.70;63.30
24668;DHT22;12793;48.014;0.232;2022-10-29T03:40:38;19.70;63.40
24668;DHT22;12793;48.014;0.232;2022-10-29T03:43:03;19.70;63.30
24668;DHT22;12793;48.014;0.232;2022-10-29T03:45:29;19.70;63.30
24668;DHT22;12793;48.014;0.232;2022-10-29T03:47:54;19.70;63.30
24668;DHT22;12793;48.014;0.232;2022-10-29T03:50:21;19.70;63.30
24668;DHT22;12793;48.014;0.232;2022-10-29T03:52:46;19.70;63.30
24668;DHT22;12793;48.014;0.232;2022-10-29T03:55:12;19.70;63.30
24668;DHT22;12793;48.014;0.232;2022-10-29T03:57:37;19.70;63.30
24668;DHT22;12793;48.014;0.232;2022-10-29T04:00:03;19.70;63.30
24668;DHT22;12793;48.014;0.232;2022-10-29T04:02:29;19.70;63.30
24668;DHT22;12793;48.014;0.232;2022-10-29T04:04:55;19.70;63.30
24668;DHT22;12793;48.014;0.232;2022-10-29T04:07:20;19.70;63.40
24668;DHT22;12793;48.014;0.232;2022-10-29T04:09:46;19.60;63.90
24668;DHT22;12793;48.014;0.232;2022-10-29T04:12:11;19.60;63.30
24668;DHT22;12793;48.014;0.232;2022-10-29T04:14:37;19.60;63.30
24668;DHT22;12793;48.014;0.232;2022-10-29T04:17:02;19.60;63.40
24668;DHT22;12793;48.014;0.232;2022-10-29T04:19:28;19.60;63.40
24668;DHT22;12793;48.014;0.232;2022-10-29T04:21:53;19.60;63.40
24668;DHT22;12793;48.014;0.232;2022-10-29T04:24:19;19.60;63.40
24668;DHT22;12793;48.014;0.232;2022-10-29T04:26:44;19.60;63.50
24668;DHT22;12793;48.014;0.232;2022-10-29T04:29:10;19.60;63.40
24668;DHT22;12793;48.014;0.232;2022-10-29T04:31:36;19.60;63.50
24668;DHT22;12793;48.014;0.232;2022-10-29T04:34:02;19.60;63.50
24668;DHT22;12793;48.014;0.232;2022-10-29T04:36:28;19.60;63.40
24668;DHT22;12793;48.014;0.232;2022-10-29T04:38:53;19.60;63.40
24668;DHT22;12793;48.014;0.232;2022-10-29T04:41:19;19.60;63.40
24668;DHT22;12793;48.014;0.232;2022-10-29T04:43:44;19.60;63.40
24668;DHT22;12793;48.014;0.232;2022-10-29T04:46:10;19.60;63.30
24668;DHT22;12793;48.014;0.232;2022-10-29T04:48:36;19.60;63.30
24668;DHT22;12793;48.014;0.232;2022-10-29T04:51:01;19.60;63.20
24668;DHT22;12793;48.014;0.232;2022-10-29T04:53:27;19.60;63.10
24668;DHT22;12793;48.014;0.232;2022-10-29T04:55:57;19.70;63.20
24668;DHT22;12793;48.014;0.232;2022-10-29T04:58:23;19.70;63.20
24668;DHT22;12793;48.014;0.232;2022-10-29T05:00:49;19.70;63.20
24668;DHT22;12793;48.014;0.232;2022-10-29T05:03:14;19.60;63.10
24668;DHT22;12793;48.014;0.232;2022-10-29T05:05:40;19.70;63.20
24668;DHT22;12793;48.014;0.232;2022-10-29T05:08:06;19.70;63.20
24668;DHT22;12793;48.014;0.232;2022-10-29T05:10:33;19.70;63.20
24668;DHT22;12793;48.014;0.232;2022-10-29T05:12:59;19.70;63.20
24668;DHT22;12793;48.014;0.232;2022-10-29T05:15:26;19.70;63.20
24668;DHT22;12793;48.014;0.232;2022-10-29T05:17:52;19.70;63.20
24668;DHT22;12793;48.014;0.232;2022-10-29T05:20:18;19.70;63.30
24668;DHT22;12793;48.014;0.232;2022-10-29T05:22:43;19.60;63.20
24668;DHT22;12793;48.014;0.232;2022-10-29T05:25:09;19.60;63.20
24668;DHT22;12793;48.014;0.232;2022-10-29T05:27:34;19.60;63.20
24668;DHT22;12793;48.014;0.232;2022-10-29T05:30:00;19.60;63.10
24668;DHT22;12793;48.014;0.232;2022-10-29T05:32:28;19.60;63.10
24668;DHT22;12793;48.014;0.232;2022-10-29T05:34:54;19.60;63.20
24668;DHT22;12793;48.014;0.232;2022-10-29T05:37:20;19.60;63.10
24668;DHT22;12793;48.014;0.232;2022-10-29T05:39:45;19.60;63.20
24668;DHT22;12793;48.014;0.232;2022-10-29T05:42:11;19.60;63.10
24668;DHT22;12793;48.014;0.232;2022-10-29T05:44:36;19.60;63.20
24668;DHT22;12793;48.014;0.232;2022-10-29T05:47:02;19.50;63.10
24668;DHT22;12793;48.014;0.232;2022-10-29T05:49:28;19.50;63.10
24668;DHT22;12793;48.014;0.232;2022-10-29T05:51:53;19.50;63.20
24668;DHT22;12793;48.014;0.232;2022-10-29T05:54:19;19.50;63.20
24668;DHT22;12793;48.014;0.232;2022-10-29T05:56:44;19.50;63.30
24668;DHT22;12793;48.014;0.232;2022-10-29T05:59:10;19.50;63.20
24668;DHT22;12793;48.014;0.232;2022-10-29T06:01:35;19.40;63.20
24668;DHT22;12793;48.014;0.232;2022-10-29T06:04:01;19.50;63.30
24668;DHT22;12793;48.014;0.232;2022-10-29T06:06:27;19.40;63.20
24668;DHT22;12793;48.014;0.232;2022-10-29T06:08:52;19.40;63.30
24668;DHT22;12793;48.014;0.232;2022-10-29T06:11:18;19.40;63.30
24668;DHT22;12793;48.014;0.232;2022-10-29T06:13:44;19.30;63.30
24668;DHT22;12793;48.014;0.232;2022-10-29T06:16:09;19.30;63.30
24668;DHT22;12793;48.014;0.232;2022-10-29T06:18:35;19.30;63.40
24668;DHT22;12793;48.014;0.232;2022-10-29T06:21:00;19.20;63.40
24668;DHT22;12793;48.014;0.232;2022-10-29T06:23:26;19.20;63.50
24668;DHT22;12793;48.014;0.232;2022-10-29T06:25:52;19.10;63.50
24668;DHT22;12793;48.014;0.232;2022-10-29T06:28:18;19.10;63.60
24668;DHT22;12793;48.014;0.232;2022-10-29T06:30:47;19.10;63.70
24668;DHT22;12793;48.014;0.232;2022-10-29T06:33:13;19.00;63.70
24668;DHT22;12793;48.014;0.232;2022-10-29T06:35:39;19.00;63.80
24668;DHT22;12793;48.014;0.232;2022-10-29T06:38:04;19.00;63.90
24668;DHT22;12793;48.014;0.232;2022-10-29T06:40:30;19.00;64.00
24668;DHT22;12793;48.014;0.232;2022-10-29T06:43:02;19.00;64.00
24668;DHT22;12793;48.014;0.232;2022-10-29T06:45:28;19.00;64.00
24668;DHT22;12793;48.014;0.232;2022-10-29T06:47:54;19.00;64.00
24668;DHT22;12793;48.014;0.232;2022-10-29T06:50:19;19.00;64.00
24668;DHT22;12793;48.014;0.232;2022-10-29T06:52:55;19.00;64.00
24668;DHT22;12793;48.014;0.232;2022-10-29T06:55:21;19.00;64.00
24668;DHT22;12793;48.014;0.232;2022-10-29T06:57:46;19.00;64.00
24668;DHT22;12793;48.014;0.232;2022-10-29T07:00:12;19.00;64.10
24668;DHT22;12793;48.014;0.232;2022-10-29T07:02:37;19.00;64.10
24668;DHT22;12793;48.014;0.232;2022-10-29T07:05:03;19.00;64.10
24668;DHT22;12793;48.014;0.232;2022-10-29T07:07:28;19.00;64.10
24668;DHT22;12793;48.014;0.232;2022-10-29T07:09:54;19.00;64.00
24668;DHT22;12793;48.014;0.232;2022-10-29T07:12:20;19.00;64.00
24668;DHT22;12793;48.014;0.232;2022-10-29T07:14:45;19.00;64.10
24668;DHT22;12793;48.014;0.232;2022-10-29T07:17:11;19.00;64.00
24668;DHT22;12793;48.014;0.232;2022-10-29T07:19:36;19.00;64.00
24668;DHT22;12793;48.014;0.232;2022-10-29T07:22:02;19.00;64.00
24668;DHT22;12793;48.014;0.232;2022-10-29T07:24:28;19.00;64.00
24668;DHT22;12793;48.014;0.232;2022-10-29T07:26:53;19.10;64.10
24668;DHT22;12793;48.014;0.232;2022-10-29T07:29:19;19.10;64.10
24668;DHT22;12793;48.014;0.232;2022-10-29T07:31:44;19.10;64.10
24668;DHT22;12793;48.014;0.232;2022-10-29T07:34:10;19.10;64.00
24668;DHT22;12793;48.014;0.232;2022-10-29T07:36:36;19.10;64.00
24668;DHT22;12793;48.014;0.232;2022-10-29T07:39:01;19.10;64.00
24668;DHT22;12793;48.014;0.232;2022-10-29T07:41:28;19.20;64.00
24668;DHT22;12793;48.014;0.232;2022-10-29T07:43:53;19.20;64.00
24668;DHT22;12793;48.014;0.232;2022-10-29T07:46:19;19.20;63.90
24668;DHT22;12793;48.014;0.232;2022-10-29T07:48:44;19.20;63.80
24668;DHT22;12793;48.014;0.232;2022-10-29T07:51:11;19.30;63.80
24668;DHT22;12793;48.014;0.232;2022-10-29T07:53:36;19.40;63.80
24668;DHT22;12793;48.014;0.232;2022-10-29T07:56:02;19.40;63.60
24668;DHT22;12793;48.014;0.232;2022-10-29T07:58:27;19.40;63.50
24668;DHT22;12793;48.014;0.232;2022-10-29T08:00:53;19.50;63.50
24668;DHT22;12793;48.014;0.232;2022-10-29T08:03:18;19.50;63.40
24668;DHT22;12793;48.014;0.232;2022-10-29T08:05:44;19.60;63.40
24668;DHT22;12793;48.014;0.232;2022-10-29T08:08:11;19.70;63.30
24668;DHT22;12793;48.014;0.232;2022-10-29T08:10:37;19.70;63.20
24668;DHT22;12793;48.014;0.232;2022-10-29T08:13:03;19.80;63.10
24668;DHT22;12793;48.014;0.232;2022-10-29T08:15:31;19.80;62.90
24668;DHT22;12793;48.014;0.232;2022-10-29T08:17:57;19.90;62.90
24668;DHT22;12793;48.014;0.232;2022-10-29T08:20:24;19.90;62.70
24668;DHT22;12793;48.014;0.232;2022-10-29T08:22:49;20.00;62.60
24668;DHT22;12793;48.014;0.232;2022-10-29T08:25:15;20.10;62.80
24668;DHT22;12793;48.014;0.232;2022-10-29T08:27:41;20.10;63.20
24668;DHT22;12793;48.014;0.232;2022-10-29T08:30:08;20.20;62.90
24668;DHT22;12793;48.014;0.232;2022-10-29T08:32:34;20.30;62.70
24668;DHT22;12793;48.014;0.232;2022-10-29T08:35:00;20.30;62.40
24668;DHT22;12793;48.014;0.232;2022-10-29T08:37:26;20.40;62.30
24668;DHT22;12793;48.014;0.232;2022-10-29T08:39:52;20.50;62.20
24668;DHT22;12793;48.014;0.232;2022-10-29T08:48:22;20.70;61.30
24668;DHT22;12793;48.014;0.232;2022-10-29T08:50:35;20.70;61.10
24668;DHT22;12793;48.014;0.232;2022-10-29T08:53:08;20.80;61.00
24668;DHT22;12793;48.014;0.232;2022-10-29T08:55:39;20.80;60.80
24668;DHT22;12793;48.014;0.232;2022-10-29T09:00:46;21.00;60.70
24668;DHT22;12793;48.014;0.232;2022-10-29T09:03:13;21.10;60.50
24668;DHT22;12793;48.014;0.232;2022-10-29T09:05:48;21.20;60.30
24668;DHT22;12793;48.014;0.232;2022-10-29T09:10:46;21.30;60.00
24668;DHT22;12793;48.014;0.232;2022-10-29T09:13:22;21.30;59.80
24668;DHT22;12793;48.014;0.232;2022-10-29T09:15:58;21.40;59.80
24668;DHT22;12793;48.014;0.232;2022-10-29T09:21:03;21.50;59.60
24668;DHT22;12793;48.014;0.232;2022-10-29T09:26:01;21.60;59.50
24668;DHT22;12793;48.014;0.232;2022-10-29T09:33:40;21.90;59.40
24668;DHT22;12793;48.014;0.232;2022-10-29T09:36:10;21.90;59.00
24668;DHT22;12793;48.014;0.232;2022-10-29T09:38:40;22.00;59.00
24668;DHT22;12793;48.014;0.232;2022-10-29T09:41:07;22.00;58.70
24668;DHT22;12793;48.014;0.232;2022-10-29T09:51:23;22.20;57.60
24668;DHT22;12793;48.014;0.232;2022-10-29T09:53:50;22.30;57.60
24668;DHT22;12793;48.014;0.232;2022-10-29T09:56:16;22.40;57.60
24668;DHT22;12793;48.014;0.232;2022-10-29T09:58:42;22.40;57.30
24668;DHT22;12793;48.014;0.232;2022-10-29T10:01:09;22.40;57.10
24668;DHT22;12793;48.014;0.232;2022-10-29T10:03:36;22.50;56.90
24668;DHT22;12793;48.014;0.232;2022-10-29T10:08:29;22.60;55.90
24668;DHT22;12793;48.014;0.232;2022-10-29T10:10:56;22.70;55.90
24668;DHT22;12793;48.014;0.232;2022-10-29T10:13:25;22.70;55.80
24668;DHT22;12793;48.014;0.232;2022-10-29T10:15:52;22.80;55.50
24668;DHT22;12793;48.014;0.232;2022-10-29T10:18:19;22.90;55.50
24668;DHT22;12793;48.014;0.232;2022-10-29T10:20:46;23.00;55.00
24668;DHT22;12793;48.014;0.232;2022-10-29T10:25:42;23.10;54.60
24668;DHT22;12793;48.014;0.232;2022-10-29T10:30:39;23.40;54.60
24668;DHT22;12793;48.014;0.232;2022-10-29T10:33:25;23.50;54.20
24668;DHT22;12793;48.014;0.232;2022-10-29T10:35:51;23.50;53.50
24668;DHT22;12793;48.014;0.232;2022-10-29T10:38:16;23.50;53.00
24668;DHT22;12793;48.014;0.232;2022-10-29T10:40:42;23.60;53.20
24668;DHT22;12793;48.014;0.232;2022-10-29T10:43:13;23.60;52.90
24668;DHT22;12793;48.014;0.232;2022-10-29T10:45:41;23.70;53.10
24668;DHT22;12793;48.014;0.232;2022-10-29T10:48:07;23.70;52.60
24668;DHT22;12793;48.014;0.232;2022-10-29T10:50:34;23.90;52.40
24668;DHT22;12793;48.014;0.232;2022-10-29T10:53:04;24.00;51.20
24668;DHT22;12793;48.014;0.232;2022-10-29T10:55:35;24.10;51.50
24668;DHT22;12793;48.014;0.232;2022-10-29T11:01:04;24.50;50.40
24668;DHT22;12793;48.014;0.232;2022-10-29T11:03:34;24.80;50.80
24668;DHT22;12793;48.014;0.232;2022-10-29T11:06:06;25.00;50.30
24668;DHT22;12793;48.014;0.232;2022-10-29T11:08:51;25.10;50.00
24668;DHT22;12793;48.014;0.232;2022-10-29T11:11:18;25.20;49.80
24668;DHT22;12793;48.014;0.232;2022-10-29T11:13:45;25.10;49.30
24668;DHT22;12793;48.014;0.232;2022-10-29T11:16:16;25.10;49.50
24668;DHT22;12793;48.014;0.232;2022-10-29T11:18:46;25.20;49.70
24668;DHT22;12793;48.014;0.232;2022-10-29T11:21:14;25.20;49.80
24668;DHT22;12793;48.014;0.232;2022-10-29T11:26:34;25.20;49.70
24668;DHT22;12793;48.014;0.232;2022-10-29T11:29:13;25.30;49.30
24668;DHT22;12793;48.014;0.232;2022-10-29T11:36:55;25.60;49.10
24668;DHT22;12793;48.014;0.232;2022-10-29T11:39:27;25.60;48.80
24668;DHT22;12793;48.014;0.232;2022-10-29T11:41:56;25.60;48.80
24668;DHT22;12793;48.014;0.232;2022-10-29T11:44:22;25.70;48.40
24668;DHT22;12793;48.014;0.232;2022-10-29T11:52:18;26.00;47.60
24668;DHT22;12793;48.014;0.232;2022-10-29T11:57:25;26.20;47.60
24668;DHT22;12793;48.014;0.232;2022-10-29T12:04:59;26.40;47.60
24668;DHT22;12793;48.014;0.232;2022-10-29T12:10:28;26.60;47.80
24668;DHT22;12793;48.014;0.232;2022-10-29T12:15:45;26.80;46.50
24668;DHT22;12793;48.014;0.232;2022-10-29T12:20:53;26.90;45.80
24668;DHT22;12793;48.014;0.232;2022-10-29T12:26:43;27.60;45.40
24668;DHT22;12793;48.014;0.232;2022-10-29T12:29:03;27.80;44.70
24668;DHT22;12793;48.014;0.232;2022-10-29T12:31:34;27.90;44.30
24668;DHT22;12793;48.014;0.232;2022-10-29T12:34:02;27.90;43.50
24668;DHT22;12793;48.014;0.232;2022-10-29T12:39:40;27.90;43.80
24668;DHT22;12793;48.014;0.232;2022-10-29T12:42:11;28.20;43.80
24668;DHT22;12793;48.014;0.232;2022-10-29T12:47:19;28.70;42.50
24668;DHT22;12793;48.014;0.232;2022-10-29T12:52:12;29.20;41.90
24668;DHT22;12793;48.014;0.232;2022-10-29T12:54:45;29.40;40.80
24668;DHT22;12793;48.014;0.232;2022-10-29T12:59:36;29.40;40.60
24668;DHT22;12793;48.014;0.232;2022-10-29T13:07:34;29.70;40.20
24668;DHT22;12793;48.014;0.232;2022-10-29T13:15:34;30.50;39.20
24668;DHT22;12793;48.014;0.232;2022-10-29T13:18:03;30.90;39.40
24668;DHT22;12793;48.014;0.232;2022-10-29T13:20:45;31.10;38.20
24668;DHT22;12793;48.014;0.232;2022-10-29T13:30:41;31.70;37.30
24668;DHT22;12793;48.014;0.232;2022-10-29T13:38:16;31.20;38.50
24668;DHT22;12793;48.014;0.232;2022-10-29T13:41:15;31.30;38.70
24668;DHT22;12793;48.014;0.232;2022-10-29T13:43:34;31.50;38.90
24668;DHT22;12793;48.014;0.232;2022-10-29T13:46:19;31.80;38.60
24668;DHT22;12793;48.014;0.232;2022-10-29T13:48:46;32.10;37.90
24668;DHT22;12793;48.014;0.232;2022-10-29T13:51:14;32.30;37.50
24668;DHT22;12793;48.014;0.232;2022-10-29T13:56:07;32.40;37.20
24668;DHT22;12793;48.014;0.232;2022-10-29T13:58:33;32.60;37.20
24668;DHT22;12793;48.014;0.232;2022-10-29T14:01:01;32.70;36.80
24668;DHT22;12793;48.014;0.232;2022-10-29T14:03:38;32.70;36.80
24668;DHT22;12793;48.014;0.232;2022-10-29T14:06:10;32.70;37.00
24668;DHT22;12793;48.014;0.232;2022-10-29T14:11:16;32.70;36.50
24668;DHT22;12793;48.014;0.232;2022-10-29T14:13:47;32.60;36.50
24668;DHT22;12793;48.014;0.232;2022-10-29T14:16:14;32.40;36.00
24668;DHT22;12793;48.014;0.232;2022-10-29T14:18:46;32.20;35.80
24668;DHT22;12793;48.014;0.232;2022-10-29T14:23:38;31.90;36.60
24668;DHT22;12793;48.014;0.232;2022-10-29T14:26:11;31.90;36.60
24668;DHT22;12793;48.014;0.232;2022-10-29T14:28:38;31.80;36.20
24668;DHT22;12793;48.014;0.232;2022-10-29T14:31:05;31.60;36.20
24668;DHT22;12793;48.014;0.232;2022-10-29T14:33:37;31.20;36.10
24668;DHT22;12793;48.014;0.232;2022-10-29T14:36:14;30.90;36.90
24668;DHT22;12793;48.014;0.232;2022-10-29T14:38:44;30.70;37.20
24668;DHT22;12793;48.014;0.232;2022-10-29T14:41:13;30.30;37.10
24668;DHT22;12793;48.014;0.232;2022-10-29T14:43:39;29.90;37.50
24668;DHT22;12793;48.014;0.232;2022-10-29T14:46:12;29.60;37.60
24668;DHT22;12793;48.014;0.232;2022-10-29T14:48:38;29.20;37.90
24668;DHT22;12793;48.014;0.232;2022-10-29T14:51:16;29.00;38.30
24668;DHT22;12793;48.014;0.232;2022-10-29T14:53:42;28.70;38.60
24668;DHT22;12793;48.014;0.232;2022-10-29T14:56:08;28.50;39.00
24668;DHT22;12793;48.014;0.232;2022-10-29T14:58:36;28.30;39.20
24668;DHT22;12793;48.014;0.232;2022-10-29T15:01:06;28.10;39.50
24668;DHT22;12793;48.014;0.232;2022-10-29T15:03:36;28.00;39.70
24668;DHT22;12793;48.014;0.232;2022-10-29T15:09:00;27.90;40.30
24668;DHT22;12793;48.014;0.232;2022-10-29T15:13:57;27.60;40.70
24668;DHT22;12793;48.014;0.232;2022-10-29T15:16:22;27.50;40.90
24668;DHT22;12793;48.014;0.232;2022-10-29T15:18:48;27.50;40.90
24668;DHT22;12793;48.014;0.232;2022-10-29T15:24:11;27.20;41.10
24668;DHT22;12793;48.014;0.232;2022-10-29T15:26:45;27.00;41.30
24668;DHT22;12793;48.014;0.232;2022-10-29T15:29:12;26.80;41.60
24668;DHT22;12793;48.014;0.232;2022-10-29T15:31:44;26.70;41.80
24668;DHT22;12793;48.014;0.232;2022-10-29T15:34:22;26.60;42.00
24668;DHT22;12793;48.014;0.232;2022-10-29T15:41:47;26.30;42.60
24668;DHT22;12793;48.014;0.232;2022-10-29T15:46:54;26.10;42.90
24668;DHT22;12793;48.014;0.232;2022-10-29T15:49:23;26.00;43.10
24668;DHT22;12793;48.014;0.232;2022-10-29T15:51:50;25.90;43.20
24668;DHT22;12793;48.014;0.232;2022-10-29T15:54:16;25.90;43.30
24668;DHT22;12793;48.014;0.232;2022-10-29T15:56:41;25.80;43.50
24668;DHT22;12793;48.014;0.232;2022-10-29T15:59:11;25.80;43.50
24668;DHT22;12793;48.014;0.232;2022-10-29T16:01:37;25.80;43.50
24668;DHT22;12793;48.014;0.232;2022-10-29T16:04:03;25.70;43.70
24668;DHT22;12793;48.014;0.232;2022-10-29T16:06:29;25.70;43.80
24668;DHT22;12793;48.014;0.232;2022-10-29T16:08:55;25.60;43.70
24668;DHT22;12793;48.014;0.232;2022-10-29T16:11:22;25.50;43.80
24668;DHT22;12793;48.014;0.232;2022-10-29T16:13:48;25.50;43.90
24668;DHT22;12793;48.014;0.232;2022-10-29T16:16:15;25.40;44.00
24668;DHT22;12793;48.014;0.232;2022-10-29T16:18:41;25.20;44.00
24668;DHT22;12793;48.014;0.232;2022-10-29T16:21:07;25.10;44.20
24668;DHT22;12793;48.014;0.232;2022-10-29T16:23:33;25.00;44.40
24668;DHT22;12793;48.014;0.232;2022-10-29T16:26:01;24.90;44.60
24668;DHT22;12793;48.014;0.232;2022-10-29T16:28:26;24.80;44.70
24668;DHT22;12793;48.014;0.232;2022-10-29T16:30:52;24.70;44.90
24668;DHT22;12793;48.014;0.232;2022-10-29T16:33:18;24.60;45.30
24668;DHT22;12793;48.014;0.232;2022-10-29T16:35:44;24.50;45.60
24668;DHT22;12793;48.014;0.232;2022-10-29T16:38:10;24.40;45.60
24668;DHT22;12793;48.014;0.232;2022-10-29T16:40:36;24.30;45.60
24668;DHT22;12793;48.014;0.232;2022-10-29T16:43:02;24.20;45.80
24668;DHT22;12793;48.014;0.232;2022-10-29T16:45:28;24.10;45.90
24668;DHT22;12793;48.014;0.232;2022-10-29T16:47:54;24.00;46.10
24668;DHT22;12793;48.014;0.232;2022-10-29T16:50:38;23.90;46.20
24668;DHT22;12793;48.014;0.232;2022-10-29T16:53:05;23.70;46.40
24668;DHT22;12793;48.014;0.232;2022-10-29T16:55:31;23.70;46.60
24668;DHT22;12793;48.014;0.232;2022-10-29T16:57:58;23.50;46.70
24668;DHT22;12793;48.014;0.232;2022-10-29T17:00:24;23.40;46.90
24668;DHT22;12793;48.014;0.232;2022-10-29T17:02:58;23.30;47.00
24668;DHT22;12793;48.014;0.232;2022-10-29T17:05:23;23.20;47.20
24668;DHT22;12793;48.014;0.232;2022-10-29T17:07:51;23.10;47.40
24668;DHT22;12793;48.014;0.232;2022-10-29T17:10:17;23.00;47.60
24668;DHT22;12793;48.014;0.232;2022-10-29T17:12:42;22.90;47.70
24668;DHT22;12793;48.014;0.232;2022-10-29T17:15:08;22.90;47.80
24668;DHT22;12793;48.014;0.232;2022-10-29T17:17:34;22.80;47.90
24668;DHT22;12793;48.014;0.232;2022-10-29T17:19:59;22.70;48.20
24668;DHT22;12793;48.014;0.232;2022-10-29T17:22:25;22.60;48.20
24668;DHT22;12793;48.014;0.232;2022-10-29T17:24:50;22.60;48.40
24668;DHT22;12793;48.014;0.232;2022-10-29T17:27:16;22.50;48.40
24668;DHT22;12793;48.014;0.232;2022-10-29T17:29:41;22.50;48.60
24668;DHT22;12793;48.014;0.232;2022-10-29T17:32:07;22.40;48.70
24668;DHT22;12793;48.014;0.232;2022-10-29T17:34:33;22.30;48.90
24668;DHT22;12793;48.014;0.232;2022-10-29T17:36:58;22.30;48.90
24668;DHT22;12793;48.014;0.232;2022-10-29T17:39:24;22.30;49.10
24668;DHT22;12793;48.014;0.232;2022-10-29T17:41:50;22.20;49.20
24668;DHT22;12793;48.014;0.232;2022-10-29T17:44:15;22.20;49.30
24668;DHT22;12793;48.014;0.232;2022-10-29T17:46:41;22.10;49.40
24668;DHT22;12793;48.014;0.232;2022-10-29T17:49:06;22.00;49.60
24668;DHT22;12793;48.014;0.232;2022-10-29T17:51:32;21.90;49.70
24668;DHT22;12793;48.014;0.232;2022-10-29T17:53:58;21.80;49.90
24668;DHT22;12793;48.014;0.232;2022-10-29T17:56:23;21.70;50.00
24668;DHT22;12793;48.014;0.232;2022-10-29T17:58:49;21.70;50.30
24668;DHT22;12793;48.014;0.232;2022-10-29T18:01:15;21.50;50.70
24668;DHT22;12793;48.014;0.232;2022-10-29T18:03:41;21.40;51.00